Data for 12/27/2013

Time Sea-Level Adjusted Pressure Absolute Pressure Temperature Relative Humidity Dew Point   
(mb) (inHg) (mb) (inHg) (C) (F) (%) (C) (F)
00:05 1023 30.21 853 25.19 2.5 36.5 55 -5.5 22.1
00:10 1023 30.21 853 25.19 2.2 35.9 55 -6 21.2
00:15 1023 30.21 853 25.19 2.3 36.1 53 -6.4 20.6
00:20 1023 30.21 853 25.19 2.7 36.9 51 -6.3 20.6
00:25 1024 30.24 853 25.19 2.9 37.1 52 -6 21.2
00:30 1024 30.24 853 25.19 2.8 37 52 -6.1 21.1
00:35 1024 30.24 853 25.19 2.9 37.2 51 -6.2 20.8
00:40 1024 30.24 853 25.19 2.9 37.3 52 -6 21.1
00:45 1024 30.24 853 25.19 2.7 36.8 53 -6 21.1
00:50 1024 30.24 853 25.19 2.8 37 53 -5.9 21.5
00:55 1024 30.24 853 25.19 2.4 36.3 55 -5.8 21.6
01:00 1024 30.24 853 25.19 1.8 35.3 57 -5.8 21.6
01:05 1024 30.24 853 25.19 1.6 34.8 59 -5.7 21.8
01:10 1024 30.24 853 25.19 1.3 34.3 60 -5.6 21.9
01:15 1024 30.24 853 25.19 1 33.7 59 -6.1 20.9
01:20 1024 30.24 853 25.19 1.2 34.1 59 -6 21.2
01:25 1024 30.24 853 25.19 1.2 34.2 58 -6.1 21
01:30 1024 30.24 853 25.19 1.4 34.4 57 -6.2 20.9
01:35 1024 30.24 853 25.19 1.8 35.3 54 -6.5 20.3
01:40 1024 30.24 853 25.19 1.9 35.5 54 -6.5 20.3
01:45 1024 30.24 853 25.19 1.8 35.3 53 -6.8 19.8
01:50 1024 30.24 853 25.19 2.3 36.1 51 -6.9 19.7
01:55 1024 30.24 853 25.19 2.7 36.9 50 -6.7 20
02:00 1024 30.24 853 25.19 2.6 36.7 50 -6.8 19.7
02:05 1024 30.24 853 25.19 2.8 37.1 49 -6.8 19.7
02:10 1024 30.24 853 25.19 2.9 37.2 49 -6.8 19.7
02:15 1024 30.24 853 25.19 2.9 37.2 49 -6.8 19.8
02:20 1024 30.24 853 25.19 2.3 36.2 51 -6.8 19.7
02:25 1024 30.24 853 25.19 2.1 35.8 50 -7.1 19.2
02:30 1024 30.24 853 25.19 2.7 36.9 48 -7.3 18.8
02:35 1024 30.24 853 25.19 3.1 37.6 47 -7.1 19.3
02:40 1024 30.24 853 25.19 3 37.5 48 -6.8 19.7
02:45 1024 30.24 853 25.19 2.5 36.6 48 -7.4 18.7
02:50 1024 30.24 853 25.19 2.8 37.1 48 -7 19.4
02:55 1024 30.24 853 25.19 3.1 37.7 48 -6.9 19.5
03:00 1024 30.24 853 25.19 2.9 37.2 52 -6 21.2
03:05 1024 30.24 853 25.19 1.7 35 57 -6.1 21.1
03:10 1024 30.24 853 25.19 0.9 33.7 59 -6.2 20.9
03:15 1024 30.24 853 25.19 1.6 34.8 56 -6.2 20.8
03:20 1024 30.24 853 25.19 1.7 35.1 57 -5.9 21.4
03:25 1024 30.24 853 25.19 1.1 34.1 61 -5.6 21.9
03:30 1024 30.24 853 25.19 0.1 32.2 66 -5.4 22.2
03:35 1024 30.24 853 25.19 -0.1 31.9 68 -5.4 22.3
03:40 1024 30.24 853 25.19 -0.2 31.7 67 -5.5 22.1
03:45 1024 30.24 853 25.19 -0.2 31.7 63 -6.4 20.5
03:50 1024 30.24 853 25.19 0.2 32.4 60 -6.6 20.2
03:55 1024 30.24 853 25.19 0.7 33.3 57 -6.8 19.8
04:00 1024 30.24 853 25.19 1.1 33.9 57 -6.5 20.3
04:05 1024 30.24 853 25.19 0.9 33.7 57 -6.6 20.1
04:10 1024 30.24 853 25.19 0.9 33.6 59 -6.3 20.7
04:15 1024 30.24 853 25.19 0.9 33.5 59 -6.3 20.6
04:20 1024 30.24 853 25.19 0.2 32.4 62 -6.3 20.7
04:25 1024 30.24 853 25.19 -0.2 31.7 62 -6.7 20
04:30 1024 30.24 853 25.19 0.4 32.7 61 -6.3 20.6
04:35 1024 30.24 853 25.19 -0.5 31.1 68 -5.8 21.6
04:40 1024 30.24 853 25.19 -1 30.3 69 -5.9 21.3
04:45 1024 30.24 853 25.19 -0.5 31.1 68 -5.7 21.7
04:50 1024 30.24 853 25.19 -0.1 31.8 68 -5.3 22.5
04:55 1024 30.24 853 25.19 0.1 32.1 68 -5.2 22.6
05:00 1024 30.24 853 25.19 0.2 32.3 68 -5 22.9
05:05 1024 30.24 853 25.19 1.1 33.9 64 -5.1 22.9
05:10 1024 30.24 853 25.19 0.9 33.7 65 -4.9 23.2
05:15 1024 30.24 853 25.19 0.5 32.9 65 -5.4 22.3
05:20 1024 30.24 853 25.19 0.3 32.6 63 -5.9 21.4
05:25 1024 30.24 853 25.19 0.3 32.5 63 -6 21.2
05:30 1024 30.24 853 25.19 0.1 32.1 62 -6.3 20.7
05:35 1024 30.24 853 25.19 0.2 32.4 60 -6.7 19.9
05:40 1024 30.24 853 25.19 0.5 32.9 59 -6.5 20.3
05:45 1024 30.24 853 25.19 0.9 33.6 58 -6.5 20.3
05:50 1024 30.24 853 25.19 1.1 34 58 -6.4 20.5
05:55 1024 30.24 853 25.19 0.7 33.3 62 -5.8 21.6
06:00 1024 30.24 853 25.19 -0.7 30.7 65 -6.5 20.3
06:05 1024 30.24 854 25.22 -0.8 30.6 64 -6.7 19.9
06:10 1024 30.24 854 25.22 -0.3 31.5 63 -6.6 20.2
06:15 1024 30.24 854 25.22 -0 32 60 -6.8 19.7
06:20 1024 30.24 854 25.22 0.4 32.7 60 -6.5 20.3
06:25 1024 30.24 854 25.22 0.3 32.5 62 -6.1 21.1
06:30 1024 30.24 854 25.22 -0.2 31.6 65 -6.1 21
06:35 1024 30.24 854 25.22 -0.5 31 66 -6.2 20.9
06:40 1024 30.24 854 25.22 -1.1 30.1 70 -5.8 21.5
06:45 1024 30.24 854 25.22 -0.7 30.7 66 -6.2 20.8
06:50 1024 30.24 854 25.22 -0.5 31 67 -6 21.2
06:55 1024 30.24 854 25.22 -0.9 30.3 69 -5.9 21.3
07:00 1024 30.24 854 25.22 -0.7 30.7 68 -5.9 21.4
07:05 1025 30.27 854 25.22 -1.3 29.7 69 -6.2 20.9
07:10 1024 30.24 854 25.22 -1.8 28.7 71 -6.4 20.5
07:15 1024 30.24 854 25.22 -0.9 30.5 68 -6 21.2
07:20 1024 30.24 854 25.22 -0.6 30.9 66 -6.2 20.8
07:25 1024 30.24 853 25.19 -0.9 30.4 66 -6.4 20.5
07:30 1024 30.24 853 25.19 -0.6 30.9 64 -6.7 20
07:35 1024 30.24 853 25.19 -0.1 31.9 61 -6.7 19.9
07:40 1024 30.24 853 25.19 0.5 33 58 -6.8 19.8
07:45 1024 30.24 853 25.19 0.7 33.2 59 -6.4 20.5
07:50 1024 30.24 853 25.19 0.3 32.5 61 -6.3 20.6
07:55 1024 30.24 853 25.19 0.1 32.1 65 -5.7 21.7
08:00 1024 30.24 853 25.19 0.2 32.4 62 -6.2 20.8
08:05 1024 30.24 853 25.19 -0 32 64 -6.1 21
08:10 1024 30.24 853 25.19 -0.2 31.7 64 -6.1 21
08:15 1024 30.24 853 25.19 -0.4 31.4 65 -6.2 20.8
08:20 1024 30.24 853 25.19 -0.6 31 66 -6.2 20.8
08:25 1024 30.24 853 25.19 -0.7 30.7 67 -6.2 20.8
08:30 1024 30.24 853 25.19 -0.6 30.9 65 -6.4 20.4
08:35 1024 30.24 853 25.19 -0.2 31.6 63 -6.3 20.6
08:40 1024 30.24 853 25.19 0.1 32.2 60 -6.6 20
08:45 1024 30.24 854 25.22 0.2 32.4 61 -6.5 20.4
08:50 1024 30.24 854 25.22 0 32.1 60 -6.8 19.7
08:55 1024 30.24 854 25.22 -0.3 31.5 61 -7 19.4
09:00 1024 30.24 854 25.22 -0.4 31.3 60 -7.2 19
09:05 1024 30.24 854 25.22 0.1 32.3 58 -7.1 19.3
09:10 1024 30.24 854 25.22 0.3 32.5 58 -7.1 19.3
09:15 1024 30.24 854 25.22 0.2 32.4 57 -7.3 18.8
09:20 1024 30.24 854 25.22 0.5 32.9 54 -7.7 18.1
09:25 1024 30.24 854 25.22 0.9 33.6 53 -7.7 18.2
09:30 1024 30.24 854 25.22 1.3 34.4 53 -7.3 18.9
09:35 1024 30.24 854 25.22 1.7 35.1 52 -7.1 19.3
09:40 1024 30.24 854 25.22 1.8 35.3 54 -6.6 20.2
09:45 1024 30.24 854 25.22 0.7 33.3 57 -6.9 19.6
09:50 1024 30.24 854 25.22 0.2 32.4 61 -6.4 20.5
09:55 1024 30.24 854 25.22 0.4 32.8 58 -6.9 19.6
10:00 1024 30.24 854 25.22 0.2 32.3 58 -7.1 19.2
10:05 1024 30.24 854 25.22 0.5 32.9 54 -7.8 18
10:10 1024 30.24 853 25.19 0.5 32.8 55 -7.5 18.4
10:15 1024 30.24 854 25.22 0.5 32.9 54 -7.7 18.1
10:20 1024 30.24 853 25.19 0.8 33.4 53 -7.8 18
10:25 1024 30.24 853 25.19 1 33.8 53 -7.6 18.3
10:30 1024 30.24 853 25.19 1 33.8 53 -7.6 18.3
10:35 1024 30.24 853 25.19 1.2 34.1 52 -7.7 18.1
10:40 1024 30.24 853 25.19 1.3 34.4 51 -7.7 18.2
10:45 1024 30.24 853 25.19 1.7 35.1 49 -7.8 18
10:50 1024 30.24 853 25.19 1.5 34.8 50 -7.8 18
10:55 1024 30.24 853 25.19 1.6 34.9 49 -7.9 17.7
11:00 1024 30.24 853 25.19 2.2 35.9 47 -8 17.6
11:05 1024 30.24 853 25.19 2.6 36.7 46 -7.8 17.9
11:10 1024 30.24 853 25.19 2.9 37.2 44 -8.2 17.3
11:15 1024 30.24 853 25.19 3.4 38.2 43 -8 17.5
11:20 1024 30.24 853 25.19 3.9 39 42 -7.8 18
11:25 1024 30.24 853 25.19 3.6 38.5 43 -7.8 17.9
11:30 1024 30.24 853 25.19 4.4 39.9 40 -8 17.7
11:35 1024 30.24 853 25.19 4.9 40.7 40 -7.8 18
11:40 1024 30.24 853 25.19 4.8 40.7 39 -7.9 17.7
11:45 1024 30.24 853 25.19 5.3 41.5 38 -7.8 18
11:50 1024 30.24 853 25.19 5.3 41.5 38 -7.9 17.7
11:55 1024 30.24 853 25.19 6 42.7 38 -7.5 18.6
12:00 1023 30.21 853 25.19 6 42.9 38 -7.2 19.1
12:05 1023 30.21 853 25.19 6.2 43.2 37 -7.2 19
12:10 1023 30.21 852 25.16 6.6 43.8 37 -7.1 19.2
12:15 1023 30.21 852 25.16 6 42.7 39 -7.1 19.3
12:20 1023 30.21 852 25.16 5.9 42.5 38 -7.4 18.7
12:25 1023 30.21 852 25.16 5.9 42.6 37 -7.8 18
12:30 1023 30.21 852 25.16 5.8 42.4 41 -6.4 20.4
12:35 1023 30.21 852 25.16 5.8 42.5 39 -7 19.3
12:40 1023 30.21 852 25.16 6.6 44 38 -6.6 20.2
12:45 1023 30.21 852 25.16 6.2 43.1 39 -6.6 20.1
12:50 1022 30.18 852 25.16 4.5 40.1 43 -7.2 19.1
12:55 1022 30.18 851 25.13 3.9 39 43 -7.4 18.6
13:00 1022 30.18 851 25.13 4.4 39.9 41 -7.9 17.8
13:05 1022 30.18 851 25.13 4.9 40.8 40 -7.6 18.3
13:10 1022 30.18 851 25.13 5.4 41.8 38 -7.8 18
13:15 1022 30.18 851 25.13 6.1 43 35 -8.2 17.3
13:20 1022 30.18 851 25.13 6.5 43.7 34 -8.2 17.2
13:25 1022 30.18 851 25.13 6.9 44.4 34 -8 17.6
13:30 1021 30.15 851 25.13 7.4 45.2 33 -7.8 17.9
13:35 1021 30.15 851 25.13 7.7 45.8 33 -7.5 18.5
13:40 1021 30.15 850 25.1 7.3 45.1 33 -8 17.6
13:45 1021 30.15 850 25.1 7 44.6 34 -8 17.6
13:50 1021 30.15 850 25.1 6.7 44.1 36 -7.4 18.6
13:55 1021 30.15 850 25.1 7.4 45.2 33 -8 17.7
14:00 1021 30.15 850 25.1 7.5 45.5 34 -7.4 18.7
14:05 1021 30.15 850 25.1 6.7 44 35 -7.8 17.9
14:10 1021 30.15 850 25.1 6.4 43.5 35 -8.1 17.5
14:15 1021 30.15 850 25.1 6.7 44.1 33 -8.4 16.9
14:20 1021 30.15 850 25.1 7.2 45 33 -8 17.5
14:25 1020 30.12 850 25.1 7 44.6 34 -7.7 18.2
14:30 1020 30.12 850 25.1 6.2 43.2 35 -8.1 17.4
14:35 1020 30.12 850 25.1 6.1 43 35 -8.2 17.3
14:40 1020 30.12 850 25.1 6.7 44.1 36 -7.4 18.7
14:45 1020 30.12 849 25.07 7.1 44.8 34 -7.9 17.9
14:50 1020 30.12 849 25.07 7.3 45.2 33 -7.8 18
14:55 1020 30.12 849 25.07 7.6 45.7 32 -8.1 17.5
15:00 1020 30.12 849 25.07 8.1 46.6 32 -7.7 18.1
15:05 1020 30.12 849 25.07 8.5 47.2 31 -7.7 18.1
15:10 1020 30.12 849 25.07 8.9 48 31 -7.3 18.9
15:15 1020 30.12 849 25.07 8.8 47.9 31 -7.4 18.6
15:20 1020 30.12 849 25.07 8.1 46.5 33 -7.3 18.9
15:25 1020 30.12 849 25.07 8.2 46.8 33 -7.1 19.2
15:30 1020 30.12 849 25.07 7.6 45.7 34 -7.1 19.3
15:35 1020 30.12 849 25.07 7 44.5 36 -7.2 19.1
15:40 1019 30.09 849 25.07 7.3 45.1 35 -7.4 18.7
15:45 1019 30.09 848 25.04 7.7 45.9 32 -7.9 17.8
15:50 1019 30.09 848 25.04 7.5 45.5 34 -7.3 18.9
15:55 1019 30.09 848 25.04 7.6 45.7 33 -7.5 18.5
16:00 1019 30.09 848 25.04 8.1 46.5 34 -7 19.4
16:05 1019 30.09 848 25.04 8 46.4 32 -7.5 18.5
16:10 1019 30.09 848 25.04 8 46.4 33 -7.4 18.7
16:15 1019 30.09 848 25.04 8.3 46.9 32 -7.5 18.5
16:20 1019 30.09 848 25.04 7.7 45.8 34 -7 19.3
16:25 1019 30.09 848 25.04 7.1 44.8 37 -6.5 20.4
16:30 1019 30.09 848 25.04 7.3 45.2 35 -7.1 19.3
16:35 1019 30.09 848 25.04 7.8 46 33 -7.3 18.9
16:40 1019 30.09 848 25.04 7.6 45.7 35 -6.8 19.7
16:45 1019 30.09 848 25.04 7.1 44.8 36 -7 19.4
16:50 1019 30.09 848 25.04 6.9 44.3 38 -6.4 20.5
16:55 1019 30.09 848 25.04 6.2 43.2 39 -6.6 20.2
17:00 1019 30.09 848 25.04 5.7 42.3 41 -6.6 20.1
17:05 1018 30.06 848 25.04 5.4 41.7 43 -6.3 20.7
17:10 1018 30.06 848 25.04 5 41 45 -6 21.2
17:15 1018 30.06 848 25.04 5.1 41.1 44 -6.1 21
17:20 1018 30.06 848 25.04 5 41 46 -5.8 21.5
17:25 1018 30.06 848 25.04 4.8 40.6 46 -5.8 21.6
17:30 1018 30.06 848 25.04 4.6 40.3 47 -5.7 21.7
17:35 1018 30.06 847 25.01 4.2 39.6 49 -5.6 22
17:40 1018 30.06 847 25.01 4 39.3 49 -5.8 21.5
17:45 1018 30.06 847 25.01 4 39.3 48 -6.1 21
17:50 1018 30.06 847 25.01 3.9 39.1 48 -6 21.2
17:55 1018 30.06 847 25.01 3.4 38.1 49 -6.3 20.6
18:00 1018 30.06 847 25.01 3.5 38.3 49 -6.2 20.8
18:05 1018 30.06 847 25.01 3.2 37.8 48 -6.8 19.8
18:10 1018 30.06 847 25.01 3.3 37.9 48 -6.6 20.2
18:15 1018 30.06 847 25.01 3.3 38 46 -7.4 18.8
18:20 1018 30.06 847 25.01 3.8 38.9 45 -7.1 19.2
18:25 1018 30.06 847 25.01 3.7 38.7 46 -6.9 19.7
18:30 1018 30.06 847 25.01 3.4 38.2 48 -6.6 20.1
18:35 1018 30.06 847 25.01 3.3 37.9 51 -5.8 21.5
18:40 1018 30.06 847 25.01 3.1 37.6 52 -5.9 21.4
18:45 1018 30.06 847 25.01 3.1 37.6 49 -6.5 20.2
18:50 1018 30.06 847 25.01 3.4 38.2 46 -7.2 19
18:55 1018 30.06 847 25.01 3.6 38.5 45 -7.1 19.1
19:00 1017 30.03 847 25.01 3.5 38.4 42 -8.1 17.4
19:05 1017 30.03 847 25.01 3.4 38.2 45 -7.4 18.7
19:10 1017 30.03 847 25.01 3.2 37.8 42 -8.4 16.9
19:15 1017 30.03 846 24.98 3.4 38.1 46 -7.2 19
19:20 1017 30.03 846 24.98 3.2 37.8 42 -8.5 16.8
19:25 1017 30.03 846 24.98 3 37.5 47 -7.3 18.9
19:30 1017 30.03 846 24.98 2.1 35.9 47 -8.1 17.5
19:35 1017 30.03 846 24.98 2.9 37.1 45 -8.1 17.5
19:40 1017 30.03 846 24.98 2.7 36.9 49 -7 19.3
19:45 1017 30.03 846 24.98 2.9 37.2 42 -8.7 16.3
19:50 1017 30.03 846 24.98 3.4 38.1 42 -8.5 16.8
19:55 1017 30.03 846 24.98 3.4 38.1 42 -8.3 17
20:00 1017 30.03 846 24.98 3.3 37.9 42 -8.4 16.8
20:05 1017 30.03 846 24.98 3.2 37.7 43 -8.3 17
20:10 1017 30.03 846 24.98 3 37.4 42 -8.7 16.3
20:15 1017 30.03 846 24.98 3.2 37.8 41 -8.8 16.2
20:20 1017 30.03 846 24.98 3.4 38.1 41 -8.7 16.3
20:25 1017 30.03 846 24.98 3.1 37.6 42 -8.6 16.5
20:30 1016 30 846 24.98 2.8 37 43 -8.5 16.6
20:35 1016 30 846 24.98 2.8 37.1 43 -8.7 16.3
20:40 1016 30 846 24.98 2.8 37.1 42 -8.9 15.9
20:45 1016 30 846 24.98 2.8 37.1 41 -9.2 15.5
20:50 1016 30 846 24.98 3.2 37.8 39 -9.5 14.9
20:55 1016 30 845 24.95 3.5 38.4 39 -9.2 15.5
21:00 1016 30 845 24.95 3.8 38.8 38 -9.1 15.6
21:05 1016 30 845 24.95 3.6 38.5 38 -9.3 15.2
21:10 1016 30 845 24.95 3.6 38.5 39 -9.1 15.6
21:15 1016 30 845 24.95 3.5 38.2 40 -9 15.9
21:20 1016 30 845 24.95 3.4 38 39 -9.2 15.4
21:25 1016 30 845 24.95 3.4 38.2 38 -9.6 14.8
21:30 1016 30 845 24.95 3.8 38.8 38 -9.4 15.1
21:35 1016 30 845 24.95 3.5 38.4 41 -8.6 16.5
21:40 1016 30 845 24.95 3.1 37.7 40 -9.1 15.7
21:45 1016 30 845 24.95 3 37.3 42 -8.9 16
21:50 1016 30 845 24.95 2.7 36.9 42 -8.8 16.1
21:55 1016 30 845 24.95 2.9 37.3 40 -9.3 15.2
22:00 1016 30 845 24.95 3.1 37.7 40 -9.2 15.4
22:05 1016 30 845 24.95 3.2 37.7 40 -9.1 15.6
22:10 1016 30 845 24.95 3.1 37.6 40 -9.2 15.4
22:15 1016 30 845 24.95 3.1 37.6 41 -9 15.7
22:20 1016 30 845 24.95 2.9 37.2 42 -8.9 16
22:25 1016 30 845 24.95 2.8 37 42 -8.8 16.1
22:30 1015 29.97 845 24.95 2.7 36.8 43 -8.7 16.4
22:35 1015 29.97 845 24.95 2.6 36.7 41 -9.2 15.4
22:40 1015 29.97 844 24.92 2.9 37.2 41 -9.2 15.5
22:45 1015 29.97 844 24.92 3.2 37.8 37 -10.1 13.8
22:50 1015 29.97 844 24.92 3.6 38.5 39 -9.1 15.6
22:55 1015 29.97 844 24.92 3.2 37.8 41 -8.9 15.9
23:00 1015 29.97 844 24.92 2.8 37 44 -8.4 16.9
23:05 1015 29.97 845 24.95 2.5 36.5 42 -9.1 15.7
23:10 1015 29.97 845 24.95 2.7 36.9 41 -9.4 15.1
23:15 1015 29.97 844 24.92 2.4 36.4 46 -8.1 17.5
23:20 1015 29.97 845 24.95 2.4 36.3 45 -8.4 16.8
23:25 1015 29.97 845 24.95 2.5 36.5 46 -8.1 17.5
23:30 1015 29.97 845 24.95 2.7 36.8 42 -8.9 16
23:35 1015 29.97 845 24.95 2.8 37 46 -7.8 17.9
23:40 1015 29.97 845 24.95 2.1 35.7 46 -8.3 17
23:45 1015 29.97 845 24.95 0.8 33.4 55 -7.2 19.1
23:50 1015 29.97 845 24.95 0.4 32.7 49 -9.1 15.6
23:55 1016 30 845 24.95 1.7 35 45 -9.1 15.6
24:00 1016 30 845 24.95 2.5 36.5 42 -9.3 15.3